Time;durP1;ratioP1;P1;durP2;ratioP2;P2;SDS_P1;SDS_P2;PMS_P1;PMS_P2;Temp;Humidity;BMP_temperature;BMP_pressure;BME280_temperature;BME280_humidity;BME280_pressure;Samples;Min_cycle;Max_cycle;Signal;HPM_P1;HPM_P2
2021/09/11 00:00:56;;;;;;;12.30;8.13;;;;;;;;;;765532;181;919202;-68
2021/09/11 00:03:22;;;;;;;11.40;7.27;;;;;;;;;;749859;183;920424;-69
2021/09/11 00:05:48;;;;;;;11.20;7.67;;;;;;;;;;752534;182;919129;-68
2021/09/11 00:08:13;;;;;;;9.10;6.90;;;;;;;;;;762341;180;915012;-67
2021/09/11 00:10:39;;;;;;;9.03;6.53;;;;;;;;;;755308;181;922568;-69
2021/09/11 00:13:05;;;;;;;8.87;7.30;;;;;;;;;;743394;187;919422;-68
2021/09/11 00:15:31;;;;;;;13.05;6.95;;;;;;;;;;741170;187;920410;-69
2021/09/11 00:17:57;;;;;;;7.60;6.60;;;;;;;;;;755698;185;919139;-68
2021/09/11 00:20:23;;;;;;;9.33;7.13;;;;;;;;;;754151;183;917755;-68
2021/09/11 00:22:48;;;;;;;12.43;7.63;;;;;;;;;;753983;185;1043050;-69
2021/09/11 00:25:14;;;;;;;12.30;7.30;;;;;;;;;;761195;183;919514;-69
2021/09/11 00:27:40;;;;;;;9.98;7.60;;;;;;;;;;753245;184;918640;-69
2021/09/11 00:30:06;;;;;;;10.57;7.50;;;;;;;;;;748781;185;919020;-68
2021/09/11 00:32:34;;;;;;;9.90;7.70;;;;;;;;;;760456;185;918247;-67
2021/09/11 00:34:58;;;;;;;13.43;6.50;;;;;;;;;;758379;183;918980;-68
2021/09/11 00:37:24;;;;;;;11.83;7.83;;;;;;;;;;758227;181;1158635;-68
2021/09/11 00:39:50;;;;;;;16.33;8.00;;;;;;;;;;748607;186;918883;-68
2021/09/11 00:42:16;;;;;;;12.13;8.77;;;;;;;;;;756163;185;919357;-68
2021/09/11 00:44:42;;;;;;;9.18;6.95;;;;;;;;;;751735;185;919423;-68
2021/09/11 00:47:08;;;;;;;10.50;7.50;;;;;;;;;;744957;187;919116;-68
2021/09/11 00:49:33;;;;;;;8.00;6.60;;;;;;;;;;753153;187;917396;-68
2021/09/11 00:51:59;;;;;;;9.70;8.47;;;;;;;;;;740525;187;919208;-68
2021/09/11 00:54:25;;;;;;;13.77;9.60;;;;;;;;;;738793;187;917853;-68
2021/09/11 00:56:51;;;;;;;12.77;8.87;;;;;;;;;;756030;184;917840;-68
2021/09/11 00:59:17;;;;;;;11.03;8.60;;;;;;;;;;752301;183;933483;-68
2021/09/11 01:01:43;;;;;;;10.37;8.23;;;;;;;;;;753213;184;919061;-68
2021/09/11 01:04:08;;;;;;;11.50;7.97;;;;;;;;;;752667;182;1038385;-68
2021/09/11 01:06:34;;;;;;;7.70;6.70;;;;;;;;;;760407;183;915168;-69
2021/09/11 01:09:00;;;;;;;9.50;8.45;;;;;;;;;;751318;183;918949;-68
2021/09/11 01:11:26;;;;;;;11.67;7.40;;;;;;;;;;753881;185;918881;-68
2021/09/11 01:13:52;;;;;;;8.40;6.43;;;;;;;;;;758442;182;920118;-68
2021/09/11 01:16:18;;;;;;;7.45;6.15;;;;;;;;;;755819;180;919420;-68
2021/09/11 01:18:43;;;;;;;12.80;8.60;;;;;;;;;;761896;181;917959;-69
2021/09/11 01:21:09;;;;;;;10.30;7.30;;;;;;;;;;763006;180;920451;-68
2021/09/11 01:23:36;;;;;;;9.27;7.23;;;;;;;;;;755170;181;918643;-68
2021/09/11 01:26:01;;;;;;;11.90;8.00;;;;;;;;;;755876;182;918504;-68
2021/09/11 01:28:28;;;;;;;13.53;8.23;;;;;;;;;;761575;181;918804;-68
2021/09/11 01:30:53;;;;;;;12.03;8.47;;;;;;;;;;755495;184;919087;-68
2021/09/11 01:33:18;;;;;;;14.53;8.07;;;;;;;;;;743896;186;919412;-67
2021/09/11 01:35:44;;;;;;;9.32;7.50;;;;;;;;;;746120;187;947719;-68
2021/09/11 01:38:10;;;;;;;11.80;8.47;;;;;;;;;;748958;186;920976;-69
2021/09/11 01:40:36;;;;;;;11.73;8.93;;;;;;;;;;737652;189;919201;-68
2021/09/11 01:43:02;;;;;;;12.70;8.57;;;;;;;;;;744223;186;918851;-68
2021/09/11 01:45:28;;;;;;;11.73;9.47;;;;;;;;;;756797;183;918666;-68
2021/09/11 01:47:54;;;;;;;10.77;8.53;;;;;;;;;;745772;186;920637;-68
2021/09/11 01:50:20;;;;;;;9.10;7.67;;;;;;;;;;754541;182;914151;-68
2021/09/11 01:52:47;;;;;;;11.48;8.50;;;;;;;;;;765185;180;919578;-67
2021/09/11 01:55:12;;;;;;;10.33;8.50;;;;;;;;;;755016;181;916866;-67
2021/09/11 01:57:38;;;;;;;12.67;9.80;;;;;;;;;;743273;186;918337;-68
2021/09/11 02:00:05;;;;;;;13.70;9.20;;;;;;;;;;741472;187;914561;-67
2021/09/11 02:02:31;;;;;;;10.37;8.50;;;;;;;;;;759901;185;914295;-68
2021/09/11 02:04:57;;;;;;;12.00;9.33;;;;;;;;;;752622;184;919067;-68
2021/09/11 02:07:23;;;;;;;11.70;7.87;;;;;;;;;;752178;185;913267;-69
2021/09/11 02:09:49;;;;;;;13.80;9.53;;;;;;;;;;755244;182;918528;-68
2021/09/11 02:12:15;;;;;;;10.47;7.80;;;;;;;;;;753874;182;918597;-68
2021/09/11 02:14:40;;;;;;;11.10;8.43;;;;;;;;;;755016;181;919174;-68
2021/09/11 02:17:06;;;;;;;11.60;8.10;;;;;;;;;;753386;181;919857;-67
2021/09/11 02:19:32;;;;;;;9.57;7.57;;;;;;;;;;757501;184;654750;-69
2021/09/11 02:21:58;;;;;;;15.00;8.97;;;;;;;;;;764098;181;634011;-70
2021/09/11 02:24:24;;;;;;;10.43;7.70;;;;;;;;;;760555;183;623952;-69
2021/09/11 02:26:50;;;;;;;11.67;8.97;;;;;;;;;;761000;182;615775;-68
2021/09/11 02:29:16;;;;;;;10.73;8.07;;;;;;;;;;745280;187;628568;-69
2021/09/11 02:31:41;;;;;;;11.87;7.93;;;;;;;;;;746212;187;919497;-68
2021/09/11 02:34:07;;;;;;;13.73;8.83;;;;;;;;;;747269;187;919348;-67
2021/09/11 02:36:33;;;;;;;10.15;7.80;;;;;;;;;;741743;186;918384;-67
2021/09/11 02:38:59;;;;;;;15.13;9.53;;;;;;;;;;742124;187;918846;-67
2021/09/11 02:41:25;;;;;;;13.03;9.57;;;;;;;;;;740900;189;918325;-68
2021/09/11 02:43:51;;;;;;;12.53;9.27;;;;;;;;;;743354;186;921994;-67
2021/09/11 02:46:16;;;;;;;14.87;9.37;;;;;;;;;;746257;186;920190;-67
2021/09/11 02:48:42;;;;;;;11.93;8.80;;;;;;;;;;739308;187;920145;-67
2021/09/11 02:51:08;;;;;;;11.10;8.03;;;;;;;;;;739132;189;920254;-68
2021/09/11 02:53:34;;;;;;;12.70;9.47;;;;;;;;;;752855;180;919681;-67
2021/09/11 02:56:00;;;;;;;13.20;8.57;;;;;;;;;;761346;181;918729;-68
2021/09/11 02:58:26;;;;;;;12.27;9.07;;;;;;;;;;764181;181;933044;-67
2021/09/11 03:00:51;;;;;;;11.73;8.87;;;;;;;;;;751567;184;918634;-68
2021/09/11 03:03:17;;;;;;;10.70;8.30;;;;;;;;;;762835;182;919473;-68
2021/09/11 03:05:43;;;;;;;12.10;8.17;;;;;;;;;;769113;181;919277;-68
2021/09/11 03:08:09;;;;;;;14.00;8.37;;;;;;;;;;750718;185;918865;-68
2021/09/11 03:10:35;;;;;;;9.00;7.63;;;;;;;;;;753022;182;919754;-68
2021/09/11 03:13:01;;;;;;;12.13;8.80;;;;;;;;;;754326;185;919033;-68
2021/09/11 03:15:26;;;;;;;13.23;8.50;;;;;;;;;;755004;184;918724;-69
2021/09/11 03:17:52;;;;;;;12.23;9.55;;;;;;;;;;741733;187;918846;-68
2021/09/11 03:20:18;;;;;;;11.80;9.60;;;;;;;;;;741185;186;918925;-68
2021/09/11 03:22:45;;;;;;;11.27;8.83;;;;;;;;;;747052;186;919387;-68
2021/09/11 03:25:10;;;;;;;13.40;9.10;;;;;;;;;;753143;181;919416;-68
2021/09/11 03:27:36;;;;;;;10.40;8.10;;;;;;;;;;754116;184;918457;-69
2021/09/11 03:30:02;;;;;;;8.73;7.43;;;;;;;;;;756304;183;919051;-68
2021/09/11 03:32:28;;;;;;;9.73;8.13;;;;;;;;;;745003;187;916806;-68
2021/09/11 03:34:54;;;;;;;11.47;8.23;;;;;;;;;;742307;187;921450;-69
2021/09/11 03:37:20;;;;;;;11.07;8.93;;;;;;;;;;745554;187;1020257;-68
2021/09/11 03:39:46;;;;;;;12.07;7.97;;;;;;;;;;750972;183;919025;-68
2021/09/11 03:42:12;;;;;;;13.63;8.73;;;;;;;;;;757840;181;918634;-68
2021/09/11 03:44:38;;;;;;;15.52;8.98;;;;;;;;;;753030;186;926320;-68
2021/09/11 03:47:04;;;;;;;10.07;8.10;;;;;;;;;;755729;185;919357;-69
2021/09/11 03:49:30;;;;;;;11.63;8.90;;;;;;;;;;762643;181;919904;-68
2021/09/11 03:51:55;;;;;;;12.90;8.70;;;;;;;;;;753406;183;918807;-68
2021/09/11 03:54:21;;;;;;;9.80;8.23;;;;;;;;;;765869;180;918547;-68
2021/09/11 03:56:48;;;;;;;14.57;7.70;;;;;;;;;;754204;183;919214;-70
2021/09/11 03:59:14;;;;;;;11.50;8.30;;;;;;;;;;755510;185;919611;-68
2021/09/11 04:01:40;;;;;;;16.27;9.95;;;;;;;;;;759096;185;918070;-67
2021/09/11 04:04:06;;;;;;;11.57;9.20;;;;;;;;;;753881;185;927559;-69
2021/09/11 04:06:32;;;;;;;12.80;8.93;;;;;;;;;;749314;183;918130;-68
2021/09/11 04:08:58;;;;;;;10.60;7.60;;;;;;;;;;754055;184;919280;-69
2021/09/11 04:11:24;;;;;;;13.83;8.90;;;;;;;;;;756377;185;919165;-68
2021/09/11 04:13:50;;;;;;;16.07;9.50;;;;;;;;;;751188;185;937123;-67
2021/09/11 04:16:15;;;;;;;12.40;8.77;;;;;;;;;;762054;180;918478;-68
2021/09/11 04:18:41;;;;;;;11.43;7.77;;;;;;;;;;756370;182;919906;-68
2021/09/11 04:21:07;;;;;;;12.73;8.80;;;;;;;;;;753382;185;918818;-68
2021/09/11 04:23:33;;;;;;;14.60;9.87;;;;;;;;;;754743;183;919222;-68
2021/09/11 04:25:59;;;;;;;14.00;9.13;;;;;;;;;;764313;181;917797;-69
2021/09/11 04:28:25;;;;;;;12.67;9.33;;;;;;;;;;754989;181;917888;-68
2021/09/11 04:30:50;;;;;;;11.03;8.90;;;;;;;;;;754910;182;918910;-68
2021/09/11 04:33:16;;;;;;;16.00;8.88;;;;;;;;;;760350;180;918656;-68
2021/09/11 04:35:42;;;;;;;10.87;8.30;;;;;;;;;;758194;181;1018806;-69
2021/09/11 04:38:08;;;;;;;11.20;9.00;;;;;;;;;;752759;181;919519;-68
2021/09/11 04:40:34;;;;;;;13.10;9.10;;;;;;;;;;764304;180;919766;-68
2021/09/11 04:43:00;;;;;;;11.37;9.10;;;;;;;;;;768332;181;916284;-68
2021/09/11 04:45:26;;;;;;;13.00;9.17;;;;;;;;;;755229;183;916476;-68
2021/09/11 04:47:51;;;;;;;12.10;8.80;;;;;;;;;;754633;185;919549;-68
2021/09/11 04:50:18;;;;;;;14.63;9.30;;;;;;;;;;759953;182;901236;-69
2021/09/11 04:52:43;;;;;;;13.03;9.93;;;;;;;;;;760282;181;935276;-69
2021/09/11 04:55:09;;;;;;;14.73;10.70;;;;;;;;;;753993;181;923100;-68
2021/09/11 04:57:35;;;;;;;12.40;10.10;;;;;;;;;;753972;183;918825;-68
2021/09/11 05:00:01;;;;;;;12.52;10.50;;;;;;;;;;753945;186;919097;-68
2021/09/11 05:02:27;;;;;;;16.00;11.50;;;;;;;;;;750229;183;919543;-70
2021/09/11 05:04:53;;;;;;;14.50;11.00;;;;;;;;;;758815;181;918830;-68
2021/09/11 05:07:18;;;;;;;16.53;10.73;;;;;;;;;;760624;182;933108;-69
2021/09/11 05:09:44;;;;;;;15.00;11.30;;;;;;;;;;757784;181;919348;-68
2021/09/11 05:12:10;;;;;;;19.52;11.65;;;;;;;;;;757101;181;919094;-68
2021/09/11 05:14:36;;;;;;;15.33;11.90;;;;;;;;;;757830;183;918927;-69
2021/09/11 05:17:02;;;;;;;18.70;13.30;;;;;;;;;;752675;185;918866;-69
2021/09/11 05:19:28;;;;;;;17.63;12.70;;;;;;;;;;754388;185;919469;-68
2021/09/11 05:21:54;;;;;;;16.17;13.05;;;;;;;;;;758393;182;919013;-67
2021/09/11 05:24:20;;;;;;;18.33;13.07;;;;;;;;;;758893;183;918338;-69
2021/09/11 05:26:46;;;;;;;20.17;14.03;;;;;;;;;;746528;182;918742;-69
2021/09/11 05:29:12;;;;;;;25.20;16.37;;;;;;;;;;729377;188;919533;-68
2021/09/11 05:31:38;;;;;;;22.17;16.20;;;;;;;;;;760159;181;919092;-68
2021/09/11 05:34:05;;;;;;;24.00;16.83;;;;;;;;;;752130;185;920488;-67
2021/09/11 05:36:29;;;;;;;28.23;17.73;;;;;;;;;;753565;185;927849;-68
2021/09/11 05:38:55;;;;;;;25.53;17.63;;;;;;;;;;756918;185;919460;-68
2021/09/11 05:41:21;;;;;;;26.80;18.40;;;;;;;;;;751099;185;921884;-68
2021/09/11 05:43:47;;;;;;;26.33;18.33;;;;;;;;;;753691;183;918961;-68
2021/09/11 05:46:13;;;;;;;25.77;17.80;;;;;;;;;;757502;185;924581;-68
2021/09/11 05:48:38;;;;;;;33.67;20.40;;;;;;;;;;754955;182;919381;-68
2021/09/11 05:51:04;;;;;;;32.80;21.37;;;;;;;;;;753648;185;919183;-68
2021/09/11 05:53:30;;;;;;;32.87;22.17;;;;;;;;;;753631;182;920316;-68
2021/09/11 05:55:56;;;;;;;35.27;24.00;;;;;;;;;;767635;181;951370;-68
2021/09/11 05:58:23;;;;;;;35.37;25.07;;;;;;;;;;751522;181;1121183;-68
2021/09/11 06:00:48;;;;;;;38.03;24.20;;;;;;;;;;752813;181;922019;-68
2021/09/11 06:03:14;;;;;;;40.00;25.90;;;;;;;;;;757899;182;918350;-66
2021/09/11 06:05:39;;;;;;;31.60;21.43;;;;;;;;;;758177;182;918747;-69
2021/09/11 06:08:05;;;;;;;34.83;23.70;;;;;;;;;;758143;181;918825;-69
2021/09/11 06:10:31;;;;;;;42.50;23.50;;;;;;;;;;758746;182;918365;-68
2021/09/11 06:12:57;;;;;;;37.70;24.30;;;;;;;;;;750894;185;926999;-69
2021/09/11 06:15:23;;;;;;;30.03;21.27;;;;;;;;;;757273;181;921349;-69
2021/09/11 06:17:49;;;;;;;32.70;21.77;;;;;;;;;;751289;185;917111;-69
2021/09/11 06:20:15;;;;;;;22.23;18.10;;;;;;;;;;756219;183;916128;-70
2021/09/11 06:22:40;;;;;;;28.47;17.43;;;;;;;;;;756150;182;916591;-70
2021/09/11 06:25:07;;;;;;;21.20;16.20;;;;;;;;;;755507;182;919669;-69
2021/09/11 06:27:33;;;;;;;23.52;13.77;;;;;;;;;;742705;180;4034554;-70
2021/09/11 06:29:58;;;;;;;19.27;12.43;;;;;;;;;;753810;183;918689;-70
2021/09/11 06:32:24;;;;;;;25.73;12.90;;;;;;;;;;755655;184;986245;-72
2021/09/11 06:34:50;;;;;;;23.83;12.80;;;;;;;;;;764858;181;918771;-71
2021/09/11 06:37:16;;;;;;;16.73;12.70;;;;;;;;;;758248;181;895482;-71
2021/09/11 06:39:42;;;;;;;15.73;12.90;;;;;;;;;;754000;181;920409;-71
2021/09/11 06:42:08;;;;;;;18.35;14.25;;;;;;;;;;755131;185;932746;-69
2021/09/11 06:44:34;;;;;;;23.73;14.90;;;;;;;;;;761420;183;918895;-72
2021/09/11 06:47:01;;;;;;;14.97;11.60;;;;;;;;;;739431;187;919202;-72
2021/09/11 06:49:26;;;;;;;14.37;10.87;;;;;;;;;;753531;183;917040;-72
2021/09/11 06:51:52;;;;;;;12.17;10.87;;;;;;;;;;760515;182;917694;-71
2021/09/11 06:54:18;;;;;;;16.87;11.00;;;;;;;;;;756207;182;919206;-72
2021/09/11 06:56:44;;;;;;;17.27;11.07;;;;;;;;;;755324;182;919174;-72
2021/09/11 06:59:10;;;;;;;13.93;9.57;;;;;;;;;;758404;181;919203;-73
2021/09/11 07:01:36;;;;;;;18.00;8.87;;;;;;;;;;753264;183;919257;-75
2021/09/11 07:04:01;;;;;;;22.93;10.10;;;;;;;;;;760263;180;919117;-73
2021/09/11 07:06:27;;;;;;;18.50;9.40;;;;;;;;;;758299;183;922363;-74
2021/09/11 07:08:53;;;;;;;11.07;8.17;;;;;;;;;;751753;182;917341;-73
2021/09/11 07:11:19;;;;;;;9.83;7.63;;;;;;;;;;751297;185;1123416;-73
2021/09/11 07:13:45;;;;;;;10.17;8.03;;;;;;;;;;739791;189;918674;-73
2021/09/11 07:16:11;;;;;;;8.03;7.23;;;;;;;;;;754597;181;1222293;-74
2021/09/11 07:18:37;;;;;;;12.90;8.33;;;;;;;;;;735381;187;916087;-74
2021/09/11 07:21:02;;;;;;;10.00;7.17;;;;;;;;;;745562;185;915161;-74
2021/09/11 07:23:28;;;;;;;8.70;5.63;;;;;;;;;;755893;186;916048;-74
2021/09/11 07:25:54;;;;;;;6.90;5.70;;;;;;;;;;753975;183;919281;-75
2021/09/11 07:28:20;;;;;;;7.93;5.83;;;;;;;;;;749549;186;919640;-75
2021/09/11 07:30:46;;;;;;;9.30;5.77;;;;;;;;;;758734;184;918881;-75
2021/09/11 07:33:12;;;;;;;13.60;7.10;;;;;;;;;;755393;185;919333;-74
2021/09/11 07:35:37;;;;;;;10.23;6.30;;;;;;;;;;750181;185;924658;-76
2021/09/11 07:38:03;;;;;;;8.73;5.63;;;;;;;;;;753849;185;918756;-75
2021/09/11 07:40:29;;;;;;;8.10;5.20;;;;;;;;;;757021;181;933621;-76
2021/09/11 07:42:55;;;;;;;12.77;5.72;;;;;;;;;;748158;185;918977;-75
2021/09/11 07:45:21;;;;;;;9.13;4.87;;;;;;;;;;745026;184;918690;-76
2021/09/11 07:47:47;;;;;;;13.30;6.23;;;;;;;;;;758781;183;1316626;-76
2021/09/11 07:50:12;;;;;;;7.27;6.33;;;;;;;;;;750574;185;919861;-77
2021/09/11 07:52:38;;;;;;;12.87;5.30;;;;;;;;;;752239;183;926746;-77
2021/09/11 07:55:04;;;;;;;11.03;5.63;;;;;;;;;;757204;184;917832;-76
2021/09/11 07:57:30;;;;;;;8.63;5.50;;;;;;;;;;754785;183;933893;-77
2021/09/11 07:59:56;;;;;;;8.50;5.23;;;;;;;;;;746967;186;1122779;-77
2021/09/11 08:02:22;;;;;;;10.55;5.85;;;;;;;;;;755045;185;918324;-76
2021/09/11 08:04:48;;;;;;;7.73;4.90;;;;;;;;;;751492;183;919656;-75
2021/09/11 08:07:13;;;;;;;9.47;5.47;;;;;;;;;;742931;184;918396;-77
2021/09/11 08:09:39;;;;;;;10.53;5.13;;;;;;;;;;746493;183;926597;-76
2021/09/11 08:12:05;;;;;;;9.37;4.50;;;;;;;;;;749699;183;918604;-76
2021/09/11 08:14:31;;;;;;;7.50;4.10;;;;;;;;;;749441;182;918298;-76
2021/09/11 08:16:57;;;;;;;8.32;3.70;;;;;;;;;;755353;185;919198;-77
2021/09/11 08:19:23;;;;;;;6.00;4.57;;;;;;;;;;759223;185;919156;-77
2021/09/11 08:21:49;;;;;;;8.37;4.13;;;;;;;;;;748129;183;918947;-77
2021/09/11 08:24:15;;;;;;;7.32;4.53;;;;;;;;;;750224;183;918882;-74
2021/09/11 08:26:41;;;;;;;8.33;5.13;;;;;;;;;;757817;185;917988;-78
2021/09/11 08:29:06;;;;;;;5.07;4.27;;;;;;;;;;754775;185;978960;-76
2021/09/11 08:31:32;;;;;;;7.10;4.77;;;;;;;;;;755391;182;918067;-78
2021/09/11 08:33:58;;;;;;;7.33;4.70;;;;;;;;;;756670;182;918849;-76
2021/09/11 08:36:24;;;;;;;6.80;4.77;;;;;;;;;;759972;183;918984;-77
2021/09/11 08:38:50;;;;;;;9.90;6.63;;;;;;;;;;757636;182;918847;-76
2021/09/11 08:41:16;;;;;;;9.73;3.90;;;;;;;;;;756144;183;919113;-77
2021/09/11 08:43:42;;;;;;;12.45;5.50;;;;;;;;;;756846;182;918710;-78
2021/09/11 08:46:07;;;;;;;5.83;4.37;;;;;;;;;;745784;181;919431;-76
2021/09/11 08:48:33;;;;;;;7.30;4.60;;;;;;;;;;759048;181;919579;-79
2021/09/11 08:50:59;;;;;;;12.30;4.70;;;;;;;;;;766773;181;816435;-78
2021/09/11 08:53:25;;;;;;;11.00;4.20;;;;;;;;;;759456;181;931702;-76
2021/09/11 08:55:51;;;;;;;6.90;4.27;;;;;;;;;;752335;183;815987;-76
2021/09/11 08:58:17;;;;;;;7.33;4.10;;;;;;;;;;756973;183;814921;-78
2021/09/11 09:00:43;;;;;;;6.27;4.30;;;;;;;;;;753509;186;918097;-77
2021/09/11 09:03:15;;;;;;;7.00;4.63;;;;;;;;;;750692;183;919427;-77
2021/09/11 09:05:41;;;;;;;10.83;4.27;;;;;;;;;;760994;182;1018723;-79
2021/09/11 09:08:07;;;;;;;12.77;5.57;;;;;;;;;;761323;182;918933;-79
2021/09/11 09:10:33;;;;;;;8.73;4.80;;;;;;;;;;749372;184;920056;-78
2021/09/11 09:12:59;;;;;;;8.93;4.60;;;;;;;;;;745445;186;929168;-77
2021/09/11 09:15:24;;;;;;;17.73;4.93;;;;;;;;;;755368;182;914567;-78
2021/09/11 09:17:51;;;;;;;6.00;4.33;;;;;;;;;;753894;186;915500;-79
2021/09/11 09:20:20;;;;;;;9.50;4.90;;;;;;;;;;759739;181;915307;-77
2021/09/11 09:22:48;;;;;;;10.93;4.73;;;;;;;;;;756404;182;1122869;-76
2021/09/11 09:25:20;;;;;;;6.20;4.00;;;;;;;;;;758206;185;913781;-77
2021/09/11 09:27:48;;;;;;;9.17;4.47;;;;;;;;;;760925;186;813378;-81
2021/09/11 09:30:14;;;;;;;6.63;4.20;;;;;;;;;;754372;183;1051214;-78
2021/09/11 09:32:39;;;;;;;12.03;4.10;;;;;;;;;;757757;181;918933;-75
2021/09/11 09:35:11;;;;;;;7.60;3.83;;;;;;;;;;764998;181;877185;-78
2021/09/11 09:37:37;;;;;;;5.60;4.13;;;;;;;;;;754065;183;817767;-80
2021/09/11 09:40:03;;;;;;;8.50;4.10;;;;;;;;;;752487;185;902212;-81
2021/09/11 09:42:29;;;;;;;7.97;4.57;;;;;;;;;;754379;183;816124;-77
2021/09/11 09:44:55;;;;;;;8.23;4.30;;;;;;;;;;758860;186;716001;-77
2021/09/11 09:47:23;;;;;;;9.43;5.00;;;;;;;;;;753986;184;1020658;-78
2021/09/11 09:49:55;;;;;;;11.33;4.50;;;;;;;;;;757760;184;816808;-80
2021/09/11 09:52:21;;;;;;;8.23;4.00;;;;;;;;;;747825;186;918332;-78
2021/09/11 09:54:47;;;;;;;14.17;5.67;;;;;;;;;;756365;183;919175;-77
2021/09/11 09:57:13;;;;;;;10.33;4.03;;;;;;;;;;742029;187;930828;-79
2021/09/11 09:59:39;;;;;;;8.80;4.77;;;;;;;;;;754026;184;816667;-76
2021/09/11 10:02:04;;;;;;;7.27;3.93;;;;;;;;;;757227;183;918724;-82
2021/09/11 10:04:30;;;;;;;8.10;4.33;;;;;;;;;;754280;185;919113;-77
2021/09/11 10:06:56;;;;;;;9.40;7.20;;;;;;;;;;753703;183;1021475;-76
2021/09/11 10:09:23;;;;;;;8.50;4.77;;;;;;;;;;757034;181;1016359;-75
2021/09/11 10:11:50;;;;;;;11.80;5.00;;;;;;;;;;748603;186;791389;-79
2021/09/11 10:14:15;;;;;;;8.23;4.60;;;;;;;;;;742695;187;913364;-78
2021/09/11 10:16:41;;;;;;;11.73;5.27;;;;;;;;;;745332;186;915156;-76
2021/09/11 10:19:13;;;;;;;12.77;4.30;;;;;;;;;;759284;183;912680;-78
2021/09/11 10:21:39;;;;;;;6.50;4.40;;;;;;;;;;743992;187;915981;-76
2021/09/11 10:24:22;;;;;;;9.70;4.10;;;;;;;;;;745703;187;812596;-84
2021/09/11 10:26:47;;;;;;;10.53;4.10;;;;;;;;;;760262;180;812157;-77
2021/09/11 10:29:19;;;;;;;6.83;4.17;;;;;;;;;;753272;186;714220;-81
2021/09/11 10:31:51;;;;;;;10.13;3.90;;;;;;;;;;754599;187;918722;-81
2021/09/11 10:34:17;;;;;;;10.43;5.17;;;;;;;;;;743909;187;816630;-80
2021/09/11 10:36:47;;;;;;;7.47;3.90;;;;;;;;;;742383;187;789564;-79
2021/09/11 10:39:12;;;;;;;6.57;5.10;;;;;;;;;;747263;187;816053;-79
2021/09/11 10:41:38;;;;;;;9.10;4.47;;;;;;;;;;754483;185;918698;-81
2021/09/11 10:44:05;;;;;;;12.47;4.57;;;;;;;;;;744698;186;1020233;-79
2021/09/11 10:46:36;;;;;;;5.13;3.73;;;;;;;;;;755268;186;741928;-80
2021/09/11 10:49:02;;;;;;;11.40;5.20;;;;;;;;;;760682;183;815445;-77
2021/09/11 10:51:29;;;;;;;8.40;4.10;;;;;;;;;;752628;183;901200;-75
2021/09/11 10:54:09;;;;;;;6.03;4.50;;;;;;;;;;756769;182;812872;-77
2021/09/11 10:56:36;;;;;;;6.07;4.10;;;;;;;;;;751480;185;816654;-79
2021/09/11 10:59:09;;;;;;;8.18;4.20;;;;;;;;;;755946;186;906221;-76
2021/09/11 11:01:40;;;;;;;14.03;4.30;;;;;;;;;;752910;185;815486;-77
2021/09/11 11:04:07;;;;;;;7.23;4.50;;;;;;;;;;761651;180;918550;-75
2021/09/11 11:06:33;;;;;;;6.40;3.73;;;;;;;;;;759032;180;918896;-78
2021/09/11 11:08:59;;;;;;;5.10;3.50;;;;;;;;;;760610;185;633732;-81
2021/09/11 11:11:25;;;;;;;11.77;4.73;;;;;;;;;;757791;184;918741;-78
2021/09/11 11:13:51;;;;;;;12.23;5.00;;;;;;;;;;742957;187;1046537;-80
2021/09/11 11:16:16;;;;;;;7.20;4.50;;;;;;;;;;743883;187;814828;-78
2021/09/11 11:18:48;;;;;;;10.27;4.17;;;;;;;;;;749541;185;712318;-81
2021/09/11 11:21:13;;;;;;;7.10;3.93;;;;;;;;;;740113;185;902534;-80
2021/09/11 11:23:39;;;;;;;6.03;3.20;;;;;;;;;;757546;182;896845;-80
2021/09/11 11:26:05;;;;;;;5.67;3.70;;;;;;;;;;757815;182;787287;-77
2021/09/11 11:28:31;;;;;;;5.07;3.40;;;;;;;;;;757943;180;814709;-79
2021/09/11 11:30:57;;;;;;;6.67;3.70;;;;;;;;;;754535;180;919097;-79
2021/09/11 11:33:23;;;;;;;8.67;3.50;;;;;;;;;;768103;181;713758;-79
2021/09/11 11:35:48;;;;;;;8.80;3.47;;;;;;;;;;759483;185;1119720;-78
2021/09/11 11:38:16;;;;;;;6.50;3.30;;;;;;;;;;756608;182;918815;-78
2021/09/11 11:40:40;;;;;;;7.37;4.00;;;;;;;;;;745813;187;713235;-78
2021/09/11 11:43:06;;;;;;;14.77;4.07;;;;;;;;;;746495;187;816096;-76
2021/09/11 11:45:32;;;;;;;4.13;3.03;;;;;;;;;;743208;187;795421;-83
2021/09/11 11:48:06;;;;;;;6.50;3.30;;;;;;;;;;755143;182;920235;-78
2021/09/11 11:50:32;;;;;;;5.70;3.03;;;;;;;;;;763906;180;815255;-76
2021/09/11 11:53:01;;;;;;;4.63;3.30;;;;;;;;;;761744;181;806961;-78
2021/09/11 11:55:27;;;;;;;6.33;3.10;;;;;;;;;;752549;180;1017846;-77
2021/09/11 11:57:53;;;;;;;10.43;3.47;;;;;;;;;;752863;184;814813;-79
2021/09/11 12:00:19;;;;;;;8.00;3.80;;;;;;;;;;754800;185;918930;-83
2021/09/11 12:02:47;;;;;;;6.83;3.60;;;;;;;;;;755603;183;919265;-79
2021/09/11 12:05:14;;;;;;;4.13;3.17;;;;;;;;;;758349;180;918323;-80
2021/09/11 12:07:40;;;;;;;6.80;3.87;;;;;;;;;;750345;183;1019653;-75
2021/09/11 12:10:06;;;;;;;8.27;3.13;;;;;;;;;;758338;183;1010834;-75
2021/09/11 12:12:45;;;;;;;4.77;3.37;;;;;;;;;;752066;183;917168;-79
2021/09/11 12:15:11;;;;;;;9.07;3.73;;;;;;;;;;760979;182;611091;-77
2021/09/11 12:17:37;;;;;;;5.60;4.07;;;;;;;;;;754323;183;921472;-79
2021/09/11 12:20:09;;;;;;;7.33;4.33;;;;;;;;;;765294;182;920334;-77
2021/09/11 12:22:35;;;;;;;6.60;3.83;;;;;;;;;;766036;181;916036;-78
2021/09/11 12:25:00;;;;;;;7.57;3.73;;;;;;;;;;767888;181;813263;-77
2021/09/11 12:27:26;;;;;;;5.53;4.12;;;;;;;;;;751868;183;1222375;-78
2021/09/11 12:29:58;;;;;;;4.90;3.53;;;;;;;;;;768474;181;918036;-77
2021/09/11 12:32:24;;;;;;;6.60;3.47;;;;;;;;;;766518;182;918197;-81
2021/09/11 12:34:50;;;;;;;17.43;5.20;;;;;;;;;;752170;183;827118;-79
2021/09/11 12:37:16;;;;;;;11.67;6.07;;;;;;;;;;758139;185;907339;-76
2021/09/11 12:39:42;;;;;;;9.90;5.17;;;;;;;;;;755849;184;907329;-75
2021/09/11 12:42:10;;;;;;;17.80;5.50;;;;;;;;;;758703;180;916065;-79
2021/09/11 12:44:36;;;;;;;16.63;4.73;;;;;;;;;;762039;180;813038;-83
2021/09/11 12:47:03;;;;;;;25.70;6.10;;;;;;;;;;758129;183;813480;-78
2021/09/11 12:49:29;;;;;;;13.10;5.07;;;;;;;;;;760308;181;812898;-77
2021/09/11 12:51:55;;;;;;;51.33;10.30;;;;;;;;;;746503;185;915309;-80
2021/09/11 12:54:21;;;;;;;9.13;4.17;;;;;;;;;;761672;182;914484;-76
2021/09/11 12:56:47;;;;;;;5.73;3.50;;;;;;;;;;751457;183;693876;-77
2021/09/11 12:59:12;;;;;;;5.67;3.10;;;;;;;;;;759870;181;715003;-79
2021/09/11 13:01:38;;;;;;;6.70;3.63;;;;;;;;;;743333;186;887040;-77
2021/09/11 13:04:05;;;;;;;7.20;4.10;;;;;;;;;;748751;187;846269;-78
2021/09/11 13:06:31;;;;;;;14.37;5.13;;;;;;;;;;742353;186;945759;-78
2021/09/11 13:08:57;;;;;;;15.40;5.93;;;;;;;;;;715478;190;913412;-80
2021/09/11 13:11:23;;;;;;;7.70;3.97;;;;;;;;;;756945;186;911958;-76
2021/09/11 13:13:48;;;;;;;5.07;3.90;;;;;;;;;;752535;184;1035731;-80
2021/09/11 13:16:14;;;;;;;14.40;4.47;;;;;;;;;;761583;182;918525;-79
2021/09/11 13:18:41;;;;;;;8.20;3.57;;;;;;;;;;757160;184;816286;-81
2021/09/11 13:21:09;;;;;;;8.43;4.23;;;;;;;;;;758068;181;628078;-78
2021/09/11 13:23:35;;;;;;;6.27;3.73;;;;;;;;;;760017;181;815555;-77
2021/09/11 13:26:01;;;;;;;4.80;3.67;;;;;;;;;;755742;180;815389;-78
2021/09/11 13:28:26;;;;;;;10.33;4.70;;;;;;;;;;770016;181;629043;-83
2021/09/11 13:30:52;;;;;;;8.73;3.60;;;;;;;;;;755904;183;916684;-80
2021/09/11 13:33:18;;;;;;;9.80;3.87;;;;;;;;;;756570;185;812112;-76
2021/09/11 13:35:44;;;;;;;9.50;3.80;;;;;;;;;;761556;182;649772;-78
2021/09/11 13:38:10;;;;;;;8.60;3.80;;;;;;;;;;759682;181;815807;-79
2021/09/11 13:40:36;;;;;;;5.40;3.43;;;;;;;;;;757958;181;778322;-80
2021/09/11 13:43:02;;;;;;;12.10;4.33;;;;;;;;;;757502;183;901191;-77
2021/09/11 13:45:27;;;;;;;10.13;4.27;;;;;;;;;;755020;184;918036;-77
2021/09/11 13:47:53;;;;;;;7.83;3.70;;;;;;;;;;753921;183;920585;-78
2021/09/11 13:50:19;;;;;;;5.57;3.60;;;;;;;;;;752480;185;918574;-74
2021/09/11 13:52:45;;;;;;;6.80;4.20;;;;;;;;;;753830;182;814984;-76
2021/09/11 13:55:11;;;;;;;6.90;4.47;;;;;;;;;;744329;187;916378;-76
2021/09/11 13:57:37;;;;;;;6.40;3.80;;;;;;;;;;746928;187;811695;-79
2021/09/11 14:00:03;;;;;;;8.33;3.53;;;;;;;;;;747079;187;620324;-77
2021/09/11 14:02:29;;;;;;;5.93;3.60;;;;;;;;;;744515;186;899559;-76
2021/09/11 14:04:54;;;;;;;5.77;3.63;;;;;;;;;;747016;186;825203;-76
2021/09/11 14:07:21;;;;;;;5.67;3.50;;;;;;;;;;751168;185;619205;-75
2021/09/11 14:09:46;;;;;;;5.70;3.23;;;;;;;;;;756342;185;626927;-77
2021/09/11 14:12:12;;;;;;;6.57;3.53;;;;;;;;;;764504;181;914460;-77